Terminal Aerodrome Forecast
Issued by NWS

Home | Current Version | Previous Version | Text Only | Print | Product List | Glossary On
Versions: 1 2 3 4 5 6 7 8 9 10 11 12 13 14 15 16 17 18
445
FTUS45 KRIW 171046 AAA
TAFCPR
TAF AMD
KCPR 171046Z 1711/1806 21020G30KT P6SM SKC
     FM171600 25015KT P6SM SCT060 BKN080
     FM171800 34015G25KT 4SM -SHRASN BKN030
     FM171900 34014KT 1 1/2SM -SHSN OVC014
     FM172300 32014KT P6SM VCSH SCT020 BKN035
     FM180100 30014KT P6SM VCSH BKN045=

USA.gov is the U.S. government's official web portal to all federal, state and local government web resources and services.